RJTQ(METAR)
06/24 16:00
RJTQ 240700Z 01017KT 9999 FEW011 SCT020 BKN030 22/19 Q1010 RMK
A2982=
戻る
トップページへ戻る
IMOC Co,.Ltd.